David Martin

Olheiro-Chefe - Bolton Wanderers
3 Fev 2028
Quinta-feira
Processo

Personalidade

Adaptabilidade (1) Ambição (16) Controvérsia (14) Lealdade (19) Pressão (13) Profissionalismo (11) Espírito Esportivo (1) Temperamento (7)

Perfil

Estilo de Treinamento Democrático
Licença Continental C
Determinação 7
Gestão de Pessoas 11
Motivação 8
Disciplina 6
Satisfação no Trabalho
100%
Fadiga
0%
Função Olheiro-Chefe
Salário 40.8K p/s
Contrato 14.03.2029

Desempenho

Comportamento Bom
Eficácia do Treinamento
36%
Desenvolvimento do Jogador
50%
Prevenção de Lesões
60%
Implementação Tática
45%

Eventos Recentes

Participou de uma reunião de recrutamento 7d atrás
Participando de desenvolvimento profissional 14d atrás
Participou de uma reunião de recrutamento 14d atrás
Participando de desenvolvimento profissional 14d atrás
Participando de desenvolvimento profissional 14d atrás
Participando de desenvolvimento profissional 14d atrás
Participando de desenvolvimento profissional 21d atrás
Participando de desenvolvimento profissional 21d atrás

Monitorando agora

122
Jogador Clube Status Habilidade Confiança Observado Última observação Último voto
Jordan Storey Salford City Ativo 126 / 132 58% 1 31.01.2028 -
Beryly Lubala Wycombe Wanderers Ativo 104 / 101 58% 1 17.01.2028 -
Jay Fulton Swansea City Ativo 117 / 105 58% 1 10.01.2028 -
Santiago Hezze Chaves Negociando 132 / 133 62% 1 01.01.2028 Aprovar
Aurélien Scheidler Tondela Negociando 119 / 119 67% 1 01.01.2028 -
David Valencia Alianza Petrolera Ativo 127 / 127 40% 4 29.12.2027 -
Dmitry Pestryakov Dinamo Moscow Ativo 121 / 107 40% 1 29.12.2027 -
Trey Nyoni Rotherham United Ativo 135 / 150 40% 3 28.12.2027 -
Fillip Jenssen Riise Stabaek Ativo 95 / 112 40% 1 28.12.2027 -
Mauro Carrizo Atlético Tucumán Ativo 87 / 126 40% 2 23.12.2027 -
Tyson Pearce St. Louis CITY SC Ativo 89 / 111 40% 2 23.12.2027 -
Bahia Criciuma Ativo 116 / 113 40% 1 22.12.2027 -
Archie Gray Derby County Ativo 154 / 160 40% 2 21.12.2027 -
Olaniyi Saheed Kwara United Ativo 90 / 91 40% 1 21.12.2027 -
Rivaldo Grobler Free State Stars Ativo 94 / 107 40% 3 20.12.2027 -
Dominik Chong Qui Atlanta United FC Ativo 93 / 87 40% 2 20.12.2027 -
Mikkel Hope Haugesund Ativo 102 / 117 40% 1 19.12.2027 -
Caleb Yirenkyi Coventry City Ativo 152 / 148 40% 3 18.12.2027 -
Ronan Kpakio Cardiff City Ativo 119 / 124 40% 2 18.12.2027 -
Hervin Goyes Deportivo Pasto Ativo 122 / 121 40% 2 15.12.2027 -
Hosea Michael Remo Stars Ativo 104 / 113 40% 1 14.12.2027 -
Onuorah Onyedika Kun Khalifat Ativo 75 / 73 40% 2 12.12.2027 -
Juan Camilo Córdoba Deportivo Pereira Ativo 83 / 102 40% 1 12.12.2027 -
Joel Ezra Enyimba Ativo 94 / 101 40% 3 10.12.2027 -
Josh Nichols Tranmere Rovers Ativo 121 / 116 40% 2 10.12.2027 -
Tiago Parente Benfica Ativo 102 / 122 40% 3 08.12.2027 -
Harbor Miller LA Galaxy Ativo 100 / 88 40% 1 09.11.2027 -
Samuel Posada Leones Ativo 101 / 102 40% 1 09.11.2027 -
Ayden Heaven Luton Town Ativo 149 / 163 40% 1 07.11.2027 -
Josh King Chelsea Ativo 142 / 151 40% 1 06.11.2027 -
Aiden Hezarkhani Real Salt Lake Ativo 108 / 98 40% 1 05.11.2027 -
Julián Bazán Philadelphia Union Ativo 129 / 103 40% 2 02.11.2027 -
Nicolas Sport Recife Ativo 105 / 120 40% 1 02.11.2027 -
Matías Canedo Rampla Juniors Ativo 100 / 82 40% 1 04.10.2027 -
Georginio Rutter Brighton Ativo 152 / 140 40% 2 09.08.2027 -
Finley McAllister Grimsby Town Ativo 84 / 86 40% 1 01.07.2027 -
Ethan Williams Peterborough United Ativo 122 / 132 40% 1 01.07.2027 -
Jofre Torrents Ajax Ativo 119 / 118 40% 2 15.06.2027 -
Hazeem Bakre Crawley Town Ativo 94 / 79 40% 1 15.06.2027 -
Dion Beljo Standard Liege Perdido 131 / 132 66% 1 01.06.2027 Aprovar
Gonçalo Oliveira Benfica Ativo 111 / 125 40% 4 28.05.2027 -
Ibrahim Sabiu Bendel Insurance Ativo 94 / 94 40% 1 28.05.2027 -
Sascha Britschgi Padova Ativo 126 / 115 40% 4 27.05.2027 -
Adam Bakoune Ospitaletto Ativo 86 / 100 40% 2 25.05.2027 -
Pietro Reggiori Pro Patria Ativo 82 / 87 40% 1 25.05.2027 -
Kazunari Kita Real Sociedad Ativo 99 / 99 40% 4 24.05.2027 -
Fuzy Taylor Medeama Ativo 80 / 67 40% 1 23.05.2027 -
Ernie Weaver AFC Wimbledon Ativo 116 / 119 40% 3 21.05.2027 -
Davide Bartesaghi AC Milan Ativo 130 / 126 40% 2 20.05.2027 -
Mpho Khethang AS Police Ativo 88 / 88 40% 1 19.05.2027 -
Hlompho Lorch Ajax Cape Town Ativo 91 / 119 40% 1 19.05.2027 -
Keagan Phiri Platinum Stars Ativo 98 / 106 40% 1 17.05.2027 -
Christos Mouzakitis Hull City Ativo 138 / 145 40% 4 13.05.2027 -
Christ Inao Oulaï Fiorentina Ativo 132 / 125 40% 1 13.05.2027 -
Joel McGregor Swindon Town Ativo 102 / 106 40% 1 10.05.2027 -
Leandro Martins Benfica Ativo 101 / 93 40% 1 08.05.2027 -
Zane Albarus Cambridge United Ativo 89 / 97 40% 2 02.05.2027 -
Keagan Tau Ajax Cape Town Ativo 97 / 86 40% 2 01.05.2027 -
David Ozoh Derby County Ativo 112 / 121 40% 2 26.04.2027 -
Percy Jali Free State Stars Ativo 81 / 121 40% 3 22.04.2027 -
Matías Gómez Granada Ativo 120 / 113 40% 1 20.04.2027 -
Riley Owen Trento Ativo 101 / 95 40% 2 11.04.2027 -
Joe Gelhardt Hull City Ativo 124 / 143 40% 1 19.01.2027 -
Jefry Zapata Danubio Perdido 118 / 118 67% 1 01.01.2027 Aprovar
Jason Knight Bristol City Ativo 126 / 116 40% 1 31.12.2026 -
Jesús Rodríguez Como Ativo 139 / 141 40% 2 29.12.2026 -
Nico O'Reilly Manchester City Ativo 150 / 145 40% 2 29.12.2026 -
Asanele Bonani Chippa United Ativo 99 / 78 40% 2 28.12.2026 -
Araphat Mohammed Berekum Chelsea Ativo 108 / 116 40% 1 28.12.2026 -
Endrick Real Madrid Ativo 154 / 165 40% 1 27.12.2026 -
Williams Yikat Aigle Royal de Moungo Ativo 96 / 91 40% 2 26.12.2026 -
Ishmael Addo Heart of Lions Ativo 80 / 107 40% 1 26.12.2026 -
Thulani Dala Platinum Stars Ativo 104 / 99 40% 2 25.12.2026 -
Morgan Whittaker Middlesbrough Ativo 121 / 124 40% 1 25.12.2026 -
Mfundo Vilakazi Kaizer Chiefs Ativo 94 / 117 40% 5 23.12.2026 -
Vivaldo Semedo Watford Ativo 122 / 125 40% 1 23.12.2026 -
Rocco Vata Watford Ativo 123 / 131 40% 1 23.12.2026 -
Hakim Sulemana Medeama Ativo 105 / 96 40% 2 21.12.2026 -
Oswin Appollis Orlando Pirates Ativo 127 / 118 40% 3 20.12.2026 -
Siyanda Ndlovu Bloemfontein Celtic Ativo 115 / 118 40% 1 20.12.2026 -
Luphumlo Sifumba SuperSport United Ativo 78 / 117 40% 2 18.12.2026 -
Bénie Traoré New York City Ativo 118 / 126 40% 1 17.12.2026 -
Tshepang Moremi Orlando Pirates Ativo 128 / 121 40% 1 17.12.2026 -
Siphelele Mthembu Jomo Cosmos Ativo 107 / 76 40% 2 14.12.2026 -
Richard Koné Queens Park Rangers Ativo 121 / 127 40% 1 12.12.2026 -
Williams Manyama SuperSport United Ativo 117 / 133 40% 1 12.12.2026 -
Kutlwano Letlhaku Ajax Cape Town Ativo 95 / 125 40% 1 11.12.2026 -
Mauricio Amaro Atlanta United FC Ativo 117 / 131 40% 2 07.12.2026 -
Othmane Maamma Watford Ativo 127 / 115 40% 3 03.12.2026 -
Marcelo Allende Mamelodi Sundowns Ativo 117 / 115 40% 1 03.12.2026 -
Antonio Galeano Remo Stars Ativo 140 / 141 40% 1 30.11.2026 -
Artem Slesar Zorya Ativo 97 / 100 40% 1 30.11.2026 -
Nicholas Ablido Great Olympics Ativo 84 / 96 40% 1 29.11.2026 -
James Dornelly Peterborough United Ativo 100 / 114 40% 1 27.11.2026 -
Mandla Erasmus SuperSport United Ativo 118 / 142 40% 3 25.11.2026 -
Cemran Dansin Orlando Pirates Ativo 109 / 114 40% 2 24.11.2026 -
Ben Gannon Doak Bournemouth Ativo 136 / 140 40% 1 20.11.2026 -
Yan Diomandé Real Madrid Ativo 157 / 156 40% 1 19.11.2026 -
El Hadji Malick Diouf Brentford Ativo 139 / 144 40% 1 19.11.2026 -
Nicolás Romero Minnesota United FC Ativo 128 / 120 40% 1 18.11.2026 -
Isaac Kyereh Liberty Professionals Ativo 111 / 99 40% 1 12.11.2026 -
Darren Yapi Colorado Rapids Ativo 106 / 126 40% 1 11.11.2026 -
Sorba Thomas Stoke City Ativo 125 / 137 40% 1 11.11.2026 -
Darlvin Yeboah Bechem United Ativo 70 / 99 40% 1 11.11.2026 -
Luka Jovanović San Jose Earthquakes Ativo 111 / 109 40% 1 09.11.2026 -
Juan Manuel Sanabria Real Salt Lake Ativo 137 / 145 40% 1 09.11.2026 -
Iván Angulo Orlando City Ativo 132 / 132 40% 1 06.11.2026 -
Jorrel Hato Chelsea Ativo 142 / 146 40% 2 04.11.2026 -
Alan Lescano Argentinos Juniors Ativo 130 / 127 40% 1 04.11.2026 -
Monty Batlhabane Polokwane City Ativo 103 / 103 40% 2 02.11.2026 -
Montader Madjed Hammarby Ativo 125 / 110 40% 1 02.11.2026 -
Derensili Sanches Fernandes Huddersfield Town Ativo 134 / 115 40% 1 02.11.2026 -
Ilyas Ansah Hull City Ativo 124 / 147 40% 1 27.10.2026 -
Ramiro Hernandes Belgrano Ativo 132 / 143 40% 1 26.10.2026 -
Oscar Schwartau Norwich City Ativo 113 / 128 40% 1 19.10.2026 -
Wisdom Udom Bendel Insurance Ativo 70 / 79 40% 1 18.10.2026 -
Reed Baker-Whiting Nashville SC Ativo 121 / 103 40% 2 13.10.2026 -
Robert FC Copenhagen Ativo 116 / 122 40% 1 07.10.2026 -
Kristian Fletcher FC Cincinnati Ativo 83 / 108 40% 1 05.10.2026 -
Noel Buck San Jose Earthquakes Ativo 111 / 134 40% 1 15.09.2026 -
Andy Rojas New York Red Bulls Ativo 81 / 86 40% 1 08.09.2026 -
Jodi Jones Notts County Ativo 97 / 100 58% 1 10.08.2026 -